Latest Weather Observations for Cobar

IDN60801

Issued at 8:05 pm EST Thursday 2 October 2014 (issued every 30 minutes, with the page automatically refreshed every 10 minutes)

About weather observations | Map of weather stations | Latest weather observations for NSW | Other Formats
Station Details ID: 048027 Name: COBAR MO Lat: -31.48 Lon: 145.83 Height: 260.0 m
Data from the previous 72 hours. | See also: Recent months at Cobar
Date/Time
EST
Temp
°C
App
Temp
°C
Dew
Point
Rel
Hum
%
Delta-T
°C
Wind Press
QNH
hPa
Press
MSL
hPa
Rain
since 9 am
mm
Dir
 
Spd
km/h
Gust
km/h
Spd
kts
Gust
kts
02/08:00pm 18.8 14.7 -0.3 27 8.4 S 11 13 6 7 1021.5 - 0.0
02/07:30pm 19.4 15.7 -0.3 26 8.7 S 9 11 5 6 1021.2 - 0.0
02/07:00pm 19.9 16.1 -0.5 25 9.0 S 9 11 5 6 1021.1 - 0.0
02/06:30pm 20.9 17.0 -1.2 22 9.7 S 9 13 5 7 1020.9 - 0.0
02/06:00pm 21.9 17.9 -1.9 20 10.4 SSE 9 17 5 9 1020.7 1020.0 0.0
02/05:30pm 22.7 18.3 -2.2 19 10.9 SSE 11 20 6 11 1020.7 - 0.0
02/05:00pm 23.2 18.9 -1.9 18 11.1 S 11 19 6 10 1020.4 - 0.0
02/04:30pm 23.0 17.3 -3.8 16 11.4 S 17 24 9 13 1020.3 - 0.0
02/04:00pm 23.3 18.0 -3.5 16 11.5 S 15 30 8 16 1020.6 - 0.0
02/03:30pm 22.9 17.3 -3.1 17 11.2 SSE 17 28 9 15 1020.7 - 0.0
02/03:00pm 22.7 17.1 -2.7 18 11.0 S 17 22 9 12 1020.9 1020.2 0.0
02/02:30pm 22.2 17.4 -2.9 18 10.8 S 13 19 7 10 1021.1 - 0.0
02/02:00pm 21.6 16.7 -3.0 19 10.5 SSE 13 24 7 13 1021.5 - 0.0
02/12:00pm 19.5 13.9 -2.5 22 9.3 SE 17 - 9 - - 1022.3 -
02/11:00am 18.0 12.5 -2.4 25 8.5 SE 17 22 9 12 1023.9 - 0.0
02/10:30am 17.6 12.8 -2.4 25 8.3 S 13 22 7 12 1024.1 - 0.0
02/10:00am 16.7 11.6 -1.7 28 7.7 S 15 22 8 12 1024.6 - 0.0
02/09:30am 16.4 10.5 -1.9 28 7.6 SSE 19 30 10 16 1024.7 - 0.0
02/09:00am 15.5 9.4 -2.1 30 7.2 SSE 20 32 11 17 1024.7 1024.0 0.0
02/08:30am 14.8 10.5 -1.8 32 6.8 SSE 11 20 6 11 1024.6 - 0.0
02/08:00am 13.6 8.9 -2.1 33 6.3 SSE 13 22 7 12 1024.4 - 0.0
02/07:30am 11.9 8.0 -1.6 39 5.4 SSE 9 13 5 7 1024.4 - 0.0
02/07:00am 10.2 6.2 -2.6 40 4.9 SSE 9 13 5 7 1024.1 - 0.0
02/06:30am 8.2 4.5 -2.8 46 4.1 SSE 7 11 4 6 1024.0 - 0.0
02/06:00am 7.4 3.4 -2.6 49 3.7 S 9 13 5 7 1023.8 1023.2 0.0
02/05:30am 7.5 3.4 -3.1 47 3.9 SSE 9 9 5 5 1023.6 - 0.0
02/05:00am 7.4 3.8 -2.2 50 3.6 SSE 7 9 4 5 1023.3 - 0.0
02/04:30am 8.8 4.8 -2.2 46 4.2 SSE 9 13 5 7 1023.2 - 0.0
02/04:00am 8.7 4.5 -3.5 42 4.5 SSE 9 11 5 6 1023.1 - 0.0
02/03:30am 9.5 5.3 -4.1 38 5.0 SSE 9 11 5 6 1023.0 - 0.0
02/03:00am 9.7 5.0 -4.6 36 5.2 SSE 11 13 6 7 1023.1 1022.4 0.0
02/02:30am 9.8 5.1 -4.9 35 5.3 SSE 11 15 6 8 1023.4 - 0.0
02/02:00am 10.1 5.4 -5.2 33 5.5 S 11 15 6 8 1023.6 - 0.0
02/01:30am 10.1 5.4 -5.2 33 5.5 SSE 11 15 6 8 1023.7 - 0.0
02/01:00am 10.2 5.5 -5.0 34 5.5 S 11 13 6 7 1023.7 - 0.0
02/12:30am 10.5 6.2 -5.3 32 5.7 S 9 11 5 6 1024.0 - 0.0
02/12:00am 11.1 6.7 -5.5 31 6.0 S 9 13 5 7 1024.0 1023.4 0.0
 
Date/Time
EST
Temp
°C
App
Temp
°C
Dew
Point
Rel
Hum
%
Delta-T
°C
Wind Press
QNH
hPa
Press
MSL
hPa
Rain
since 9 am
mm
Dir
 
Spd
km/h
Gust
km/h
Spd
kts
Gust
kts
01/11:30pm 11.4 7.1 -5.3 30 6.1 S 9 15 5 8 1024.0 - 0.0
01/11:00pm 12.0 7.6 -5.5 29 6.4 S 9 13 5 7 1024.1 - 0.0
01/10:30pm 12.5 8.1 -5.4 28 6.6 S 9 13 5 7 1023.9 - 0.0
01/10:00pm 12.9 8.6 -5.0 28 6.7 S 9 13 5 7 1023.7 - 0.0
01/09:30pm 13.6 9.3 -5.0 27 7.0 S 9 13 5 7 1023.4 - 0.0
01/09:00pm 14.2 9.8 -6.0 24 7.5 S 9 15 5 8 1023.5 1022.9 0.0
01/08:30pm 14.8 9.9 -6.6 22 7.9 S 11 17 6 9 1023.4 - 0.0
01/08:00pm 15.3 10.1 -6.5 21 8.1 S 13 19 7 10 1023.2 - 0.0
01/07:30pm 15.5 10.3 -6.5 21 8.2 S 13 15 7 8 1022.8 - 0.0
01/07:00pm 16.1 11.2 -6.6 20 8.5 S 11 17 6 9 1022.3 - 0.0
01/06:30pm 17.0 11.6 -8.1 17 9.2 S 13 22 7 12 1022.0 - 0.0
01/06:00pm 17.7 11.5 -8.5 16 9.6 S 17 24 9 13 1021.7 1021.0 0.0
01/05:30pm 18.3 12.0 -9.8 14 10.1 S 17 28 9 15 1021.5 - 0.0
01/05:00pm 18.7 11.9 -11.2 12 10.5 S 19 28 10 15 1021.4 - 0.0
01/04:30pm 19.2 13.9 -7.7 15 10.2 SSW 13 24 7 13 1021.3 - 0.0
01/04:00pm 19.2 12.6 -9.6 13 10.5 S 19 28 10 15 1021.2 - 0.0
01/03:30pm 20.0 13.9 -8.3 14 10.7 SSE 17 26 9 14 1021.1 - 0.0
01/03:00pm 20.0 13.4 -9.0 13 10.8 S 19 35 10 19 1021.2 1020.5 0.0
01/02:30pm 19.2 13.1 -8.3 15 10.3 S 17 30 9 16 1021.4 - 0.0
01/02:00pm 19.1 12.4 -9.9 13 10.5 S 19 43 10 23 1021.7 - 0.0
01/01:30pm 19.4 12.9 -8.3 14 10.4 SSW 19 30 10 16 1021.9 - 0.0
01/01:00pm 18.2 11.4 -9.5 14 10.0 S 20 39 11 21 1022.2 - 0.0
01/12:30pm 18.3 11.5 -9.2 14 10.0 SSW 20 35 11 19 1022.5 - 0.0
01/12:00pm 16.9 10.3 -9.0 16 9.3 S 19 35 10 19 1022.8 1022.1 0.0
01/11:30am 17.3 10.6 -8.4 16 9.4 SSW 20 37 11 20 1023.0 - 0.0
01/11:00am 16.7 10.1 -6.7 19 8.8 S 20 32 11 17 1023.2 - 0.0
01/10:30am 15.8 9.5 -4.4 24 7.9 S 20 35 11 19 1023.5 - 0.0
01/10:00am 14.8 8.1 -3.8 27 7.3 S 22 33 12 18 1023.5 - 0.0
01/09:30am 14.5 7.5 -3.2 29 7.0 S 24 33 13 18 1023.5 - 0.0
01/09:00am 14.2 7.3 -2.5 31 6.7 S 24 37 13 20 1023.4 1022.7 0.0
01/08:30am 13.3 6.8 -2.6 33 6.3 S 22 33 12 18 1023.1 - 0.0
01/08:00am 13.1 7.1 -1.4 36 5.9 S 20 30 11 16 1022.8 - 0.0
01/07:30am 12.6 6.8 -1.2 38 5.6 S 19 32 10 17 1022.6 - 0.0
01/07:00am 12.2 6.5 -0.4 42 5.2 S 19 30 10 16 1022.3 - 0.0
01/06:30am 11.7 6.1 -0.2 44 4.9 S 19 30 10 16 1021.7 - 0.0
01/06:00am 11.5 7.1 0.2 45 4.7 S 13 19 7 10 1021.3 1020.6 0.0
01/05:30am 11.9 7.2 0.8 46 4.7 S 15 22 8 12 1020.8 - 0.0
01/05:00am 12.5 7.3 0.1 42 5.2 S 17 26 9 14 1020.1 - 0.0
01/04:30am 12.7 7.5 0.0 41 5.3 SSW 17 26 9 14 1019.7 - 0.0
01/04:00am 13.5 7.8 -0.7 37 5.9 SSW 19 32 10 17 1019.5 - 0.0
01/03:30am 14.1 7.3 0.6 39 5.8 S 26 43 14 23 1019.2 - 0.0
01/03:00am 14.4 10.0 4.9 53 4.5 S 17 28 9 15 1019.0 1018.3 0.0
01/02:30am 15.1 9.4 4.8 50 4.9 SSW 24 37 13 20 1018.8 - 0.0
01/02:00am 15.9 9.7 6.1 52 4.8 SSW 28 37 15 20 1018.5 - 0.0
01/01:30am 17.8 11.3 4.8 42 6.3 SSW 28 44 15 24 1017.8 - 0.0
01/01:00am 20.1 13.6 0.0 26 9.0 SSW 24 39 13 21 1017.1 - 0.0
01/12:30am 21.0 15.1 -0.9 23 9.7 SSW 20 33 11 18 1016.4 - 0.0
01/12:00am 21.8 15.5 -1.2 21 10.2 SW 22 32 12 17 1015.9 1015.6 0.0
 
Date/Time
EST
Temp
°C
App
Temp
°C
Dew
Point
Rel
Hum
%
Delta-T
°C
Wind Press
QNH
hPa
Press
MSL
hPa
Rain
since 9 am
mm
Dir
 
Spd
km/h
Gust
km/h
Spd
kts
Gust
kts
30/11:30pm 20.9 16.5 0.5 25 9.3 W 13 17 7 9 1015.4 - 0.0
30/11:00pm 21.4 16.7 0.7 25 9.5 W 15 20 8 11 1015.1 - 0.0
30/10:30pm 20.5 16.6 1.2 27 8.9 WNW 11 13 6 7 1015.0 - 0.0
30/10:00pm 20.6 16.6 0.6 26 9.1 NW 11 13 6 7 1014.9 - 0.0
30/09:30pm 21.2 17.2 0.3 25 9.5 NW 11 15 6 8 1014.9 - 0.0
30/09:00pm 22.0 17.4 -0.7 22 10.2 NW 13 15 7 8 1014.9 1014.6 0.0
30/08:30pm 22.3 18.2 -0.5 22 10.3 NW 11 11 6 6 1014.8 - 0.0
30/08:00pm 24.0 19.9 -0.4 20 11.2 WNW 11 13 6 7 1014.4 - 0.0
30/07:30pm 25.8 20.7 -2.1 16 12.6 W 15 20 8 11 1014.2 - 0.0
30/07:00pm 26.4 21.7 -2.0 15 12.9 W 13 17 7 9 1013.8 - 0.0
30/06:30pm 27.7 21.1 -3.3 13 13.9 W 22 33 12 18 1013.3 - 0.0
30/06:00pm 28.5 21.9 -3.5 12 14.4 W 22 37 12 20 1013.1 1012.7 0.0
30/05:30pm 29.3 22.7 -3.2 12 14.8 W 22 32 12 17 1012.8 - 0.0
30/05:00pm 29.9 22.1 -3.5 11 15.2 W 28 43 15 23 1012.6 - 0.0
30/04:30pm 30.6 23.5 -4.6 10 15.8 WNW 24 37 13 20 1012.4 - 0.0
30/04:00pm 30.8 23.7 -4.0 10 15.8 W 24 37 13 20 1012.8 - 0.0
30/03:30pm 30.9 23.5 -3.6 10 15.8 W 26 39 14 21 1012.6 - 0.0
30/03:00pm 31.2 24.7 -2.7 11 15.8 W 22 37 12 20 1012.9 1012.5 0.0
30/02:30pm 31.4 24.4 -3.2 10 16.0 W 24 35 13 19 1013.2 - 0.0
30/02:00pm 30.9 23.5 -3.7 10 15.8 W 26 39 14 21 1013.5 - 0.0
30/01:30pm 31.5 24.2 -2.9 10 16.0 W 26 39 14 21 1013.7 - 0.0
30/01:00pm 31.6 24.0 -2.1 11 15.9 WSW 28 37 15 20 1013.8 - 0.0
30/12:30pm 31.6 25.4 -3.2 10 16.1 WNW 20 35 11 19 1014.5 - 0.0
30/12:00pm 30.6 23.7 -2.5 11 15.4 W 24 32 13 17 1014.7 1014.4 0.0
30/11:30am 30.2 25.3 -0.4 14 14.7 W 15 26 8 14 1015.1 - 0.0
30/11:00am 28.6 24.9 -0.1 15 13.7 N 9 17 5 9 1014.9 - 0.0
30/10:30am 28.8 24.7 2.0 18 13.3 W 13 17 7 9 1015.8 - 0.0
30/10:00am 27.7 23.7 0.7 17 13.0 W 11 17 6 9 1015.9 - 0.0
30/09:30am 27.2 23.9 0.3 17 12.8 NNW 7 9 4 5 1015.7 - 0.0
30/09:00am 25.8 21.6 -0.9 17 12.3 NW 11 15 6 8 1015.8 1015.5 0.0
30/08:30am 24.0 19.6 0.4 21 11.0 NNW 13 19 7 10 1015.8 - 0.0
30/08:00am 20.7 18.1 3.2 31 8.4 W 6 9 3 5 1015.7 - 0.0
30/07:30am 19.2 15.9 2.2 32 7.9 W 9 17 5 9 1015.1 - 0.0
30/07:00am 19.9 15.5 0.4 27 8.8 N 13 19 7 10 1014.6 - 0.0
30/06:30am 17.6 14.8 3.0 37 6.8 SW 7 11 4 6 1015.4 - 0.0
30/06:00am 17.5 14.5 1.9 35 7.1 W 7 11 4 6 1014.9 1014.6 0.0
30/05:30am 18.6 14.6 0.8 30 8.0 N 11 15 6 8 1014.3 - 0.0
30/05:00am 18.6 14.6 0.5 29 8.1 NNW 11 11 6 6 1013.8 - 0.0
30/04:30am 19.5 14.2 -0.7 25 8.9 N 17 24 9 13 1013.3 - 0.0
30/04:00am 19.2 13.9 -0.6 26 8.7 N 17 20 9 11 1013.3 - 0.0
30/03:30am 18.2 14.4 1.8 33 7.5 N 11 13 6 7 1013.9 - 0.0
30/03:00am 17.9 14.1 1.6 33 7.4 N 11 11 6 6 1013.9 1013.6 0.0
30/02:30am 17.9 14.0 1.3 32 7.5 N 11 13 6 7 1013.9 - 0.0
30/02:00am 19.3 15.3 0.4 28 8.5 NNE 11 15 6 8 1014.0 - 0.0
30/01:30am 19.4 15.0 0.5 28 8.5 NNE 13 15 7 8 1014.2 - 0.0
30/01:00am 20.2 15.7 -0.1 25 9.1 NNE 13 17 7 9 1014.4 - 0.0
30/12:30am 20.5 16.1 0.1 25 9.2 NNE 13 17 7 9 1014.5 - 0.0
30/12:00am 20.4 15.9 -0.1 25 9.2 NNE 13 15 7 8 1014.9 1014.6 0.0
 
Date/Time
EST
Temp
°C
App
Temp
°C
Dew
Point
Rel
Hum
%
Delta-T
°C
Wind Press
QNH
hPa
Press
MSL
hPa
Rain
since 9 am
mm
Dir
 
Spd
km/h
Gust
km/h
Spd
kts
Gust
kts
29/11:30pm 21.6 16.2 -1.2 21 10.1 NNE 17 17 9 9 1014.9 - 0.0
29/11:00pm 21.0 16.5 -0.4 24 9.6 NNE 13 15 7 8 1015.1 - 0.0
29/10:30pm 21.3 16.8 -0.6 23 9.8 NNE 13 15 7 8 1015.3 - 0.0
29/10:00pm 22.9 18.7 -1.2 20 10.8 NNE 11 13 6 7 1015.3 - 0.0
29/09:30pm 22.6 19.8 2.0 25 9.8 NNE 6 7 3 4 1015.3 - 0.0
29/09:00pm 23.7 20.5 0.5 21 10.8 N 7 9 4 5 1015.4 1015.1 0.0
29/08:30pm 23.7 20.3 -0.7 20 11.1 N 7 9 4 5 1015.3 - 0.0

Other Formats:

Comma delimited format used in spreadsheet applications
http://www.bom.gov.au/fwo/IDN60801/IDN60801.94711.axf

JavaScript Object Notation format (JSON) in row-major order
http://www.bom.gov.au/fwo/IDN60801/IDN60801.94711.json